createdAt,value
2023-02-03T00:01:51.495Z,95213.34
2023-02-03T00:04:18.475Z,95207.63
2023-02-03T00:06:45.939Z,95215.06
2023-02-03T00:09:13.291Z,95200.56
2023-02-03T00:11:40.266Z,95216.00
2023-02-03T00:14:08.065Z,95196.00
2023-02-03T00:16:36.156Z,95230.53
2023-02-03T00:19:03.792Z,95224.81
2023-02-03T00:21:30.803Z,95225.81
2023-02-03T00:23:57.846Z,95221.53
2023-02-03T00:26:26.141Z,95221.16
2023-02-03T00:28:53.155Z,95224.19
2023-02-03T00:31:22.992Z,95232.50
2023-02-03T00:33:57.496Z,95232.44
2023-02-03T00:36:26.089Z,95230.56
2023-02-03T00:38:53.659Z,95224.78
2023-02-03T00:41:22.014Z,95247.88
2023-02-03T00:43:49.819Z,95227.38
2023-02-03T00:46:17.039Z,95255.97
2023-02-03T00:48:44.142Z,95227.44
2023-02-03T00:51:11.046Z,95246.81
2023-02-03T00:53:38.258Z,95243.38
2023-02-03T00:56:12.537Z,95261.44
2023-02-03T00:58:40.870Z,95238.78
2023-02-03T01:01:08.577Z,95256.09
2023-02-03T01:03:35.690Z,95264.69
2023-02-03T01:06:21.742Z,95272.66
2023-02-03T01:08:49.047Z,95272.16
2023-02-03T01:11:19.806Z,95262.63
2023-02-03T01:13:49.115Z,95251.06
2023-02-03T01:16:18.847Z,95276.53
2023-02-03T01:18:46.948Z,95265.56
2023-02-03T01:21:25.836Z,95252.34
2023-02-03T01:23:53.929Z,95265.38
2023-02-03T01:26:22.842Z,95246.69
2023-02-03T01:28:58.443Z,95244.78
2023-02-03T01:31:28.791Z,95221.66
2023-02-03T01:33:56.763Z,95239.28
2023-02-03T01:36:26.872Z,95256.28
2023-02-03T01:38:54.665Z,95254.38
2023-02-03T01:41:24.880Z,95251.69
2023-02-03T01:43:54.713Z,95245.91
2023-02-03T01:46:30.289Z,95264.03
2023-02-03T01:49:07.353Z,95254.41
2023-02-03T01:51:35.915Z,95255.41
2023-02-03T01:54:03.942Z,95277.56
2023-02-03T01:56:36.563Z,95293.19
2023-02-03T01:59:03.582Z,95263.88
2023-02-03T02:01:31.950Z,95273.13
2023-02-03T02:04:03.013Z,95280.38
2023-02-03T02:06:30.559Z,95273.50
2023-02-03T02:09:00.704Z,95291.81
2023-02-03T02:11:28.403Z,95266.69
2023-02-03T02:14:00.439Z,95290.59
2023-02-03T02:17:04.410Z,95253.19
2023-02-03T02:19:37.268Z,95291.50
2023-02-03T02:22:28.660Z,95298.84
2023-02-03T02:25:18.689Z,95292.31
2023-02-03T02:28:16.847Z,95298.22
2023-02-03T02:30:56.148Z,95302.41
2023-02-03T02:33:44.307Z,95298.72
2023-02-03T02:36:34.818Z,95278.91
2023-02-03T02:39:14.366Z,95296.91
2023-02-03T02:41:50.131Z,95310.94
2023-02-03T02:44:25.755Z,95296.63
2023-02-03T02:46:55.689Z,95288.03
2023-02-03T02:49:42.799Z,95294.69
2023-02-03T02:52:14.177Z,95309.00
2023-02-03T02:54:48.118Z,95331.06
2023-02-03T02:57:18.972Z,95313.44
2023-02-03T02:59:46.845Z,95314.91
2023-02-03T03:02:13.864Z,95284.00
2023-02-03T03:04:43.543Z,95327.91
2023-02-03T03:07:22.863Z,95323.91
2023-02-03T03:10:03.947Z,95328.09
2023-02-03T03:12:42.685Z,95313.16
2023-02-03T03:15:21.129Z,95325.13
2023-02-03T03:18:01.804Z,95266.03
2023-02-03T03:20:30.325Z,95333.03
2023-02-03T03:23:06.921Z,95328.56
2023-02-03T03:25:41.758Z,95313.44
2023-02-03T03:28:14.055Z,95269.72
2023-02-03T03:30:41.436Z,95301.38
2023-02-03T03:33:09.752Z,95331.22
2023-02-03T03:35:49.378Z,95331.03
2023-02-03T03:38:33.760Z,95334.19
2023-02-03T03:41:21.488Z,95348.34
2023-02-03T03:43:50.067Z,95321.06
2023-02-03T03:46:21.884Z,95333.84
2023-02-03T03:49:01.279Z,95345.47
2023-02-03T03:51:34.139Z,95339.75
2023-02-03T03:54:07.933Z,95332.22
2023-02-03T03:56:41.859Z,95313.28
2023-02-03T03:59:12.384Z,95321.88
2023-02-03T04:01:40.086Z,95318.44
2023-02-03T04:04:09.626Z,95330.59
2023-02-03T04:06:39.176Z,95342.03
2023-02-03T04:09:06.740Z,95337.31
2023-02-03T04:11:52.344Z,95331.50
2023-02-03T04:14:19.319Z,95336.13
2023-02-03T04:16:46.280Z,95352.09
2023-02-03T04:19:13.274Z,95330.06
2023-02-03T04:21:40.194Z,95350.81
2023-02-03T04:24:07.778Z,95377.69
2023-02-03T04:26:34.617Z,95377.69
2023-02-03T04:29:01.776Z,95347.09
2023-02-03T04:31:28.804Z,95396.13
2023-02-03T04:33:55.746Z,95374.44
2023-02-03T04:36:22.965Z,95376.41
2023-02-03T04:38:50.412Z,95391.50
2023-02-03T04:41:18.105Z,95392.22
2023-02-03T04:43:44.986Z,95406.66
2023-02-03T04:46:12.110Z,95396.19
2023-02-03T04:48:39.043Z,95393.50
2023-02-03T04:51:08.257Z,95407.47
2023-02-03T04:53:35.596Z,95422.34
2023-02-03T04:56:02.921Z,95403.63
2023-02-03T04:58:29.915Z,95419.06
2023-02-03T05:00:57.213Z,95430.16
2023-02-03T05:03:26.088Z,95427.31
2023-02-03T05:05:57.111Z,95435.03
2023-02-03T05:08:24.425Z,95431.06
2023-02-03T05:10:51.409Z,95435.97
2023-02-03T05:13:18.523Z,95404.84
2023-02-03T05:15:45.387Z,95451.19
2023-02-03T05:18:12.428Z,95441.94
2023-02-03T05:20:39.345Z,95456.28
2023-02-03T05:23:06.983Z,95450.75
2023-02-03T05:25:34.498Z,95449.78
2023-02-03T05:28:01.682Z,95442.59
2023-02-03T05:30:28.996Z,95462.75
2023-02-03T05:32:56.035Z,95416.69
2023-02-03T05:35:23.137Z,95443.31
2023-02-03T05:37:50.031Z,95452.22
2023-02-03T05:40:35.533Z,95440.59
2023-02-03T05:43:02.546Z,95448.66
2023-02-03T05:45:29.622Z,95440.84
2023-02-03T05:47:57.278Z,95440.28
2023-02-03T05:50:24.386Z,95397.78
2023-02-03T05:52:51.427Z,95453.38
2023-02-03T05:55:18.355Z,95468.44
2023-02-03T05:57:46.470Z,95463.91
2023-02-03T06:00:14.901Z,95483.41
2023-02-03T06:02:42.107Z,95482.31
2023-02-03T06:05:09.368Z,95481.03
2023-02-03T06:07:36.500Z,95456.84
2023-02-03T06:10:03.638Z,95486.47
2023-02-03T06:12:30.742Z,95470.19
2023-02-03T06:14:57.544Z,95474.91
2023-02-03T06:17:24.993Z,95499.44
2023-02-03T06:19:52.326Z,95496.13
2023-02-03T06:22:19.160Z,95471.50
2023-02-03T06:24:48.087Z,95488.91
2023-02-03T06:27:16.147Z,95489.56
2023-02-03T06:29:43.232Z,95498.03
2023-02-03T06:32:10.091Z,95460.50
2023-02-03T06:34:36.939Z,95506.94
2023-02-03T06:37:05.015Z,95514.00
2023-02-03T06:39:31.915Z,95505.28
2023-02-03T06:41:58.977Z,95518.41
2023-02-03T06:44:26.080Z,95521.47
2023-02-03T06:46:53.206Z,95538.28
2023-02-03T06:49:20.028Z,95512.16
2023-02-03T06:51:47.036Z,95536.66
2023-02-03T06:54:14.661Z,95523.22
2023-02-03T06:56:42.916Z,95528.56
2023-02-03T06:59:10.235Z,95527.50
2023-02-03T07:01:37.880Z,95526.22
2023-02-03T07:04:05.750Z,95534.38
2023-02-03T07:06:34.289Z,95510.94
2023-02-03T07:09:03.290Z,95521.28
2023-02-03T07:11:30.622Z,95518.38
2023-02-03T07:13:57.815Z,95486.34
2023-02-03T07:16:24.706Z,95494.06
2023-02-03T07:18:51.700Z,95517.22
2023-02-03T07:21:19.482Z,95499.06
2023-02-03T07:23:50.032Z,95495.78
2023-02-03T07:26:17.768Z,95515.88
2023-02-03T07:28:45.475Z,95486.34
2023-02-03T07:31:12.436Z,95513.84
2023-02-03T07:33:39.968Z,95527.72
2023-02-03T07:36:08.461Z,95520.13
2023-02-03T07:38:35.615Z,95532.47
2023-02-03T07:41:02.591Z,95529.66
2023-02-03T07:43:29.685Z,95523.47
2023-02-03T07:45:56.511Z,95540.28
2023-02-03T07:48:23.981Z,95552.22
2023-02-03T07:50:52.863Z,95534.47
2023-02-03T07:53:19.961Z,95550.63
2023-02-03T07:55:46.916Z,95528.66
2023-02-03T07:58:15.047Z,95529.03
2023-02-03T08:01:00.501Z,95535.28
2023-02-03T08:03:27.473Z,95539.81
2023-02-03T08:05:54.539Z,95515.97
2023-02-03T08:08:21.696Z,95568.63
2023-02-03T08:10:48.565Z,95538.63
2023-02-03T08:13:15.553Z,95517.78
2023-02-03T08:15:42.485Z,95548.75
2023-02-03T08:18:10.067Z,95541.72
2023-02-03T08:20:37.240Z,95531.81
2023-02-03T08:23:04.651Z,95553.97
2023-02-03T08:25:32.011Z,95549.16
2023-02-03T08:27:59.581Z,95559.88
2023-02-03T08:30:45.654Z,95561.09
2023-02-03T08:33:12.830Z,95535.97
2023-02-03T08:35:40.191Z,95554.22
2023-02-03T08:38:07.056Z,95560.22
2023-02-03T08:40:34.147Z,95507.66
2023-02-03T08:43:01.123Z,95569.75
2023-02-03T08:45:28.085Z,95576.41
2023-02-03T08:47:55.411Z,95565.66
2023-02-03T08:50:22.279Z,95580.28
2023-02-03T08:52:49.601Z,95587.59
2023-02-03T08:55:16.736Z,95592.94
2023-02-03T08:57:44.329Z,95580.31
2023-02-03T09:00:11.905Z,95538.69
2023-02-03T09:02:38.811Z,95586.28
2023-02-03T09:05:06.264Z,95554.03
2023-02-03T09:07:33.230Z,95559.41
2023-02-03T09:10:00.179Z,95584.50
2023-02-03T09:12:27.190Z,95559.16
2023-02-03T09:14:54.079Z,95559.22
2023-02-03T09:17:21.063Z,95579.91
2023-02-03T09:19:47.968Z,95569.66
2023-02-03T09:22:15.051Z,95564.75
2023-02-03T09:24:42.106Z,95533.09
2023-02-03T09:27:08.970Z,95548.06
2023-02-03T09:29:35.851Z,95557.16
2023-02-03T09:32:07.872Z,95559.94
2023-02-03T09:34:34.750Z,95566.63
2023-02-03T09:37:02.009Z,95558.03
2023-02-03T09:39:29.018Z,95564.84
2023-02-03T09:42:14.407Z,95569.66
2023-02-03T09:45:10.003Z,95586.31
2023-02-03T09:47:41.267Z,95583.13
2023-02-03T09:50:18.198Z,95564.09
2023-02-03T09:52:45.946Z,95519.22
2023-02-03T09:55:35.742Z,95551.28
2023-02-03T09:58:12.536Z,95570.53
2023-02-03T10:00:48.150Z,95546.19
2023-02-03T10:03:23.118Z,95565.91
2023-02-03T10:06:08.165Z,95570.78
2023-02-03T10:09:03.530Z,95575.03
2023-02-03T10:11:30.654Z,95556.59
2023-02-03T10:14:35.959Z,95508.41
2023-02-03T10:17:30.402Z,95566.38
2023-02-03T10:20:09.486Z,95552.31
2023-02-03T10:22:45.921Z,95537.00
2023-02-03T10:25:16.198Z,95549.88
2023-02-03T10:27:44.099Z,95547.44
2023-02-03T10:30:21.695Z,95543.19
2023-02-03T10:33:00.465Z,95541.94
2023-02-03T10:35:37.008Z,95531.47
2023-02-03T10:38:10.004Z,95505.22
2023-02-03T10:40:37.379Z,95541.75
2023-02-03T10:43:22.883Z,95540.03
2023-02-03T10:45:50.042Z,95551.41
2023-02-03T10:48:19.115Z,95542.13
2023-02-03T10:50:50.357Z,95547.03
2023-02-03T10:53:25.124Z,95564.09
2023-02-03T10:56:20.517Z,95575.25
2023-02-03T10:58:56.749Z,95525.50
2023-02-03T11:01:26.692Z,95524.81
2023-02-03T11:04:05.884Z,95541.75
2023-02-03T11:06:34.139Z,95550.50
2023-02-03T11:09:01.056Z,95524.09
2023-02-03T11:11:34.104Z,95525.06
2023-02-03T11:14:04.455Z,95538.13
2023-02-03T11:16:35.083Z,95516.63
2023-02-03T11:19:17.059Z,95517.94
2023-02-03T11:21:50.908Z,95529.53
2023-02-03T11:24:27.991Z,95514.41
2023-02-03T11:26:59.454Z,95497.19
2023-02-03T11:29:29.373Z,95510.31
2023-02-03T11:32:01.885Z,95505.25
2023-02-03T11:34:33.344Z,95481.25
2023-02-03T11:37:33.536Z,95498.03
2023-02-03T11:40:12.723Z,95493.41
2023-02-03T11:42:41.872Z,95497.91
2023-02-03T11:45:17.862Z,95491.00
2023-02-03T11:48:01.266Z,95509.66
2023-02-03T11:50:40.708Z,95494.00
2023-02-03T11:53:25.736Z,95495.84
2023-02-03T11:55:58.825Z,95497.97
2023-02-03T11:58:29.075Z,95502.97
2023-02-03T12:01:08.811Z,95490.25
2023-02-03T12:03:50.917Z,95506.53
2023-02-03T12:06:41.095Z,95433.00
2023-02-03T12:09:25.253Z,95498.50
2023-02-03T12:12:07.697Z,95500.94
2023-02-03T12:14:43.551Z,95493.72
2023-02-03T12:17:10.485Z,95503.84
2023-02-03T12:20:09.862Z,95500.44
2023-02-03T12:22:48.647Z,95475.50
2023-02-03T12:25:18.886Z,95504.78
2023-02-03T12:28:20.690Z,95483.91
2023-02-03T12:31:04.481Z,95486.44
2023-02-03T12:33:37.846Z,95451.78
2023-02-03T12:36:18.193Z,95502.31
2023-02-03T12:38:52.715Z,95470.25
2023-02-03T12:41:30.624Z,95491.66
2023-02-03T12:44:08.544Z,95484.63
2023-02-03T12:46:38.326Z,95466.41
2023-02-03T12:49:27.437Z,95475.88
2023-02-03T12:52:01.632Z,95484.66
2023-02-03T12:54:31.315Z,95490.34
2023-02-03T12:57:10.834Z,95464.63
2023-02-03T12:59:40.568Z,95458.47
2023-02-03T13:02:30.409Z,95448.59
2023-02-03T13:05:05.837Z,95416.38
2023-02-03T13:07:49.589Z,95469.72
2023-02-03T13:10:28.308Z,95401.88
2023-02-03T13:12:58.185Z,95449.03
2023-02-03T13:15:30.723Z,95440.25
2023-02-03T13:18:01.781Z,95452.47
2023-02-03T13:20:31.814Z,95442.38
2023-02-03T13:22:58.995Z,95444.06
2023-02-03T13:25:38.149Z,95442.47
2023-02-03T13:28:26.446Z,95450.72
2023-02-03T13:31:08.944Z,95445.56
2023-02-03T13:34:08.332Z,95444.41
2023-02-03T13:37:20.589Z,95429.13
2023-02-03T13:39:50.396Z,95430.03
2023-02-03T13:42:30.299Z,95424.94
2023-02-03T13:44:59.889Z,95397.84
2023-02-03T13:47:29.194Z,95444.47
2023-02-03T13:50:02.877Z,95445.22
2023-02-03T13:52:47.594Z,95440.28
2023-02-03T13:55:33.895Z,95288.53
2023-02-03T13:58:01.591Z,95449.81
2023-02-03T14:00:43.938Z,95442.47
2023-02-03T14:03:18.413Z,95447.78
2023-02-03T14:05:49.534Z,95444.91
2023-02-03T14:08:25.647Z,95454.50
2023-02-03T14:11:30.777Z,95449.66
2023-02-03T14:14:09.831Z,95447.59
2023-02-03T14:16:40.784Z,95446.78
2023-02-03T14:19:34.029Z,95386.78
2023-02-03T14:22:02.754Z,95426.56
2023-02-03T14:24:33.708Z,95409.38
2023-02-03T14:27:03.914Z,95438.56
2023-02-03T14:29:36.616Z,95450.00
2023-02-03T14:32:09.355Z,95449.00
2023-02-03T14:34:39.226Z,95446.91
2023-02-03T14:37:30.179Z,95450.69
2023-02-03T14:39:59.946Z,95449.31
2023-02-03T14:43:11.042Z,95438.34
2023-02-03T14:46:08.722Z,95443.00
2023-02-03T14:49:29.667Z,95427.72
2023-02-03T14:52:11.822Z,95438.38
2023-02-03T14:54:38.816Z,95440.22
2023-02-03T14:57:35.630Z,95435.09
2023-02-03T15:00:08.352Z,95425.34
2023-02-03T15:02:36.214Z,95422.84
2023-02-03T15:05:12.138Z,95418.56
2023-02-03T15:07:48.579Z,95416.44
2023-02-03T15:10:19.827Z,95408.28
2023-02-03T15:12:52.167Z,95401.78
2023-02-03T15:15:24.624Z,95401.31
2023-02-03T15:17:54.976Z,95390.31
2023-02-03T15:20:34.506Z,95379.56
2023-02-03T15:23:02.496Z,95376.75
2023-02-03T15:25:31.992Z,95357.81
2023-02-03T15:28:13.575Z,95366.88
2023-02-03T15:30:41.567Z,95295.78
2023-02-03T15:33:18.673Z,95371.69
2023-02-03T15:35:48.783Z,95278.66
2023-02-03T15:38:24.304Z,95359.38
2023-02-03T15:40:58.018Z,95375.91
2023-02-03T15:43:28.100Z,95373.03
2023-02-03T15:46:02.452Z,95373.47
2023-02-03T15:48:43.245Z,95379.38
2023-02-03T15:51:19.959Z,95361.72
2023-02-03T15:53:59.008Z,95361.09
2023-02-03T15:56:44.531Z,95362.28
2023-02-03T15:59:22.279Z,95366.13
2023-02-03T16:01:49.745Z,95358.56
2023-02-03T16:04:16.957Z,95327.25
2023-02-03T16:06:48.313Z,95344.72
2023-02-03T16:09:32.369Z,95338.53
2023-02-03T16:12:23.733Z,95345.88
2023-02-03T16:14:52.079Z,95336.97
2023-02-03T16:17:26.291Z,95315.69
2023-02-03T16:20:13.456Z,95307.91
2023-02-03T16:23:00.961Z,95337.75
2023-02-03T16:25:31.429Z,95319.06
2023-02-03T16:28:32.231Z,95332.91
2023-02-03T16:31:18.254Z,95320.16
2023-02-03T16:34:08.736Z,95320.34
2023-02-03T16:36:59.983Z,95303.81
2023-02-03T16:39:45.923Z,95280.16
2023-02-03T16:42:37.372Z,95284.91
2023-02-03T16:45:31.723Z,95285.41
2023-02-03T16:48:17.817Z,95280.91
2023-02-03T16:50:58.175Z,95276.78
2023-02-03T16:53:30.207Z,95241.16
2023-02-03T16:56:00.282Z,95264.63
2023-02-03T16:58:28.788Z,95242.03
2023-02-03T17:00:57.640Z,95261.97
2023-02-03T17:03:27.748Z,95242.84
2023-02-03T17:05:56.191Z,95257.88
2023-02-03T17:08:26.338Z,95234.50
2023-02-03T17:10:53.434Z,95238.19
2023-02-03T17:13:23.265Z,95090.38
2023-02-03T17:15:54.669Z,95226.22
2023-02-03T17:18:22.121Z,95246.41
2023-02-03T17:20:49.188Z,95208.59
2023-02-03T17:23:17.084Z,95243.34
2023-02-03T17:25:46.383Z,95242.25
2023-02-03T17:28:14.090Z,95232.72
2023-02-03T17:30:41.268Z,95214.78
2023-02-03T17:33:12.410Z,95218.22
2023-02-03T17:35:44.688Z,95231.72
2023-02-03T17:38:14.610Z,95223.78
2023-02-03T17:54:32.432Z,95198.69
2023-02-03T17:56:59.432Z,95184.88
2023-02-03T17:59:26.387Z,95187.06
2023-02-03T18:01:53.615Z,95172.59
2023-02-03T18:04:20.575Z,95171.84
2023-02-03T18:06:47.579Z,95167.66
2023-02-03T18:09:16.656Z,95168.84
2023-02-03T18:11:45.813Z,95175.75
2023-02-03T18:14:14.288Z,95163.94
2023-02-03T18:16:42.651Z,95163.50
2023-02-03T18:19:14.380Z,95151.50
2023-02-03T18:21:43.163Z,95145.28
2023-02-03T18:24:12.253Z,95098.03
2023-02-03T18:26:49.640Z,95161.63
2023-02-03T18:29:17.311Z,95144.91
2023-02-03T18:31:44.538Z,95143.22
2023-02-03T18:34:12.016Z,95154.72
2023-02-03T18:39:06.956Z,95151.75
2023-02-03T18:41:34.743Z,95098.94
2023-02-03T18:44:02.197Z,95144.63
2023-02-03T18:46:31.661Z,95139.34
2023-02-03T18:48:59.524Z,95160.91
2023-02-03T18:51:26.924Z,95155.06
2023-02-03T18:53:59.298Z,95138.53
2023-02-03T18:56:34.833Z,95136.72
2023-02-03T18:59:11.029Z,95135.97
2023-02-03T19:01:39.199Z,95142.88
2023-02-03T19:04:06.596Z,95095.63
2023-02-03T19:06:34.365Z,95127.72
2023-02-03T19:09:02.276Z,95110.31
2023-02-03T19:11:29.200Z,95098.34
2023-02-03T19:13:56.322Z,95124.22
2023-02-03T19:16:23.206Z,95111.84
2023-02-03T19:18:50.212Z,95071.41
2023-02-03T19:21:17.490Z,95089.31
2023-02-03T19:23:45.083Z,95087.72
2023-02-03T19:26:12.560Z,95056.84
2023-02-03T19:28:41.261Z,95049.28
2023-02-03T19:31:12.398Z,95071.88
2023-02-03T19:33:39.564Z,95059.00
2023-02-03T19:36:09.641Z,95056.75
2023-02-03T19:38:37.029Z,95052.09
2023-02-03T19:41:04.437Z,95042.00
2023-02-03T19:43:32.327Z,95053.97
2023-02-03T19:45:59.808Z,95052.59
2023-02-03T19:48:26.790Z,95059.63
2023-02-03T19:50:53.824Z,95030.19
2023-02-03T19:53:21.629Z,95052.97
2023-02-03T19:55:50.104Z,95053.16
2023-02-03T19:58:17.043Z,95034.31
2023-02-03T20:00:44.375Z,95044.63
2023-02-03T20:03:11.247Z,95045.63
2023-02-03T20:05:38.503Z,95056.91
2023-02-03T20:08:06.117Z,95047.38
2023-02-03T20:10:33.308Z,95046.75
2023-02-03T20:13:00.964Z,95034.13
2023-02-03T20:15:28.142Z,95032.31
2023-02-03T20:17:55.622Z,95042.09
2023-02-03T20:20:23.153Z,95044.72
2023-02-03T20:22:50.473Z,95040.50
2023-02-03T20:25:17.481Z,95036.00
2023-02-03T20:27:44.683Z,95031.50
2023-02-03T20:30:12.191Z,95006.16
2023-02-03T20:32:39.712Z,95030.97
2023-02-03T20:35:07.525Z,95039.72
2023-02-03T20:37:36.404Z,95026.75
2023-02-03T20:40:12.287Z,95033.66
2023-02-03T20:42:39.348Z,94996.91
2023-02-03T20:45:26.560Z,95026.19
2023-02-03T20:47:53.624Z,95016.03
2023-02-03T20:50:28.920Z,95025.38
2023-02-03T20:52:58.891Z,95005.50
2023-02-03T20:55:26.159Z,95010.78
2023-02-03T20:57:55.158Z,95001.47
2023-02-03T21:00:26.505Z,94991.75
2023-02-03T21:03:12.475Z,95004.16
2023-02-03T21:05:42.328Z,95014.53
2023-02-03T21:08:16.725Z,94969.25
2023-02-03T21:10:44.926Z,94987.75
2023-02-03T21:13:33.634Z,94989.19
2023-02-03T21:16:04.596Z,94990.00
2023-02-03T21:18:43.387Z,94989.00
2023-02-03T21:21:27.951Z,94976.63
2023-02-03T21:23:55.524Z,94943.66
2023-02-03T21:26:22.417Z,94981.91
2023-02-03T21:28:54.900Z,94935.38
2023-02-03T21:31:28.990Z,94967.06
2023-02-03T21:33:58.554Z,94985.16
2023-02-03T21:36:28.189Z,94981.09
2023-02-03T21:38:57.576Z,94986.38
2023-02-03T21:41:25.549Z,94984.97
2023-02-03T21:43:55.787Z,94961.34
2023-02-03T21:46:26.570Z,94840.38
2023-02-03T21:48:58.572Z,94951.91
2023-02-03T21:51:28.242Z,94965.72
2023-02-03T21:53:59.741Z,94972.41
2023-02-03T21:56:43.279Z,94948.69
2023-02-03T21:59:26.130Z,94961.69
2023-02-03T22:01:57.746Z,94945.03
2023-02-03T22:04:28.414Z,94981.56
2023-02-03T22:06:56.004Z,94964.91
2023-02-03T22:09:24.821Z,94978.53
2023-02-03T22:11:52.630Z,94973.66
2023-02-03T22:14:21.154Z,94969.00
2023-02-03T22:16:48.533Z,94967.38
2023-02-03T22:19:17.677Z,94970.63
2023-02-03T22:21:45.204Z,94952.28
2023-02-03T22:24:12.161Z,94962.50
2023-02-03T22:26:39.080Z,94939.13
2023-02-03T22:29:06.117Z,94945.16
2023-02-03T22:31:33.471Z,94947.00
2023-02-03T22:34:00.433Z,94948.63
2023-02-03T22:36:27.343Z,94936.25
2023-02-03T22:38:54.438Z,94929.75
2023-02-03T22:41:21.660Z,94915.59
2023-02-03T22:43:48.561Z,94942.03
2023-02-03T22:46:15.682Z,94916.03
2023-02-03T22:48:42.605Z,94934.91
2023-02-03T22:51:09.593Z,94910.88
2023-02-03T22:53:36.722Z,94911.94
2023-02-03T22:56:03.898Z,94920.91
2023-02-03T22:58:30.895Z,94915.56
2023-02-03T23:00:57.719Z,94917.19
2023-02-03T23:03:24.791Z,94912.00
2023-02-03T23:05:52.059Z,94895.59
2023-02-03T23:08:19.045Z,94882.81
2023-02-03T23:10:48.610Z,94894.38
2023-02-03T23:13:15.952Z,94894.56
2023-02-03T23:15:42.882Z,94877.31
2023-02-03T23:18:09.994Z,94877.97
2023-02-03T23:20:37.068Z,94872.91
2023-02-03T23:23:04.107Z,94860.94
2023-02-03T23:25:30.972Z,94851.69
2023-02-03T23:27:58.234Z,94844.78
2023-02-03T23:30:25.255Z,94834.06
2023-02-03T23:32:52.336Z,94825.81
2023-02-03T23:35:37.800Z,94806.28
2023-02-03T23:38:04.710Z,94788.44
2023-02-03T23:40:32.158Z,94818.91
2023-02-03T23:42:59.404Z,94807.97
2023-02-03T23:45:26.476Z,94774.75
2023-02-03T23:47:53.420Z,94798.47
2023-02-03T23:50:20.716Z,94800.69
2023-02-03T23:52:48.137Z,94802.13
2023-02-03T23:55:17.877Z,94806.78
2023-02-03T23:57:45.336Z,94800.69
